sensor_id;sensor_type;location;lat;lon;timestamp;P1;durP1;ratioP1;P2;durP2;ratioP2
22525;SDS011;11429;50.842;4.386;2023-04-25T00:00:21;14.60;;;4.03;;
22525;SDS011;11429;50.842;4.386;2023-04-25T00:02:47;18.52;;;5.03;;
22525;SDS011;11429;50.842;4.386;2023-04-25T00:05:13;15.70;;;5.05;;
22525;SDS011;11429;50.842;4.386;2023-04-25T00:07:42;13.82;;;4.25;;
22525;SDS011;11429;50.842;4.386;2023-04-25T00:10:08;15.48;;;4.20;;
22525;SDS011;11429;50.842;4.386;2023-04-25T00:12:36;15.25;;;4.50;;
22525;SDS011;11429;50.842;4.386;2023-04-25T00:15:02;23.27;;;4.88;;
22525;SDS011;11429;50.842;4.386;2023-04-25T00:17:28;15.15;;;4.65;;
22525;SDS011;11429;50.842;4.386;2023-04-25T00:19:54;15.90;;;4.50;;
22525;SDS011;11429;50.842;4.386;2023-04-25T00:22:20;17.40;;;4.32;;
22525;SDS011;11429;50.842;4.386;2023-04-25T00:24:46;14.73;;;4.40;;
22525;SDS011;11429;50.842;4.386;2023-04-25T00:27:12;17.10;;;4.93;;
22525;SDS011;11429;50.842;4.386;2023-04-25T00:29:37;13.93;;;4.03;;
22525;SDS011;11429;50.842;4.386;2023-04-25T00:32:03;16.33;;;4.72;;
22525;SDS011;11429;50.842;4.386;2023-04-25T00:34:29;16.92;;;4.40;;
22525;SDS011;11429;50.842;4.386;2023-04-25T00:36:55;14.43;;;4.32;;
22525;SDS011;11429;50.842;4.386;2023-04-25T00:39:21;15.27;;;4.30;;
22525;SDS011;11429;50.842;4.386;2023-04-25T00:41:47;15.80;;;4.53;;
22525;SDS011;11429;50.842;4.386;2023-04-25T00:44:13;21.83;;;5.78;;
22525;SDS011;11429;50.842;4.386;2023-04-25T00:46:42;15.23;;;5.13;;
22525;SDS011;11429;50.842;4.386;2023-04-25T00:49:07;19.25;;;4.80;;
22525;SDS011;11429;50.842;4.386;2023-04-25T00:51:33;16.85;;;4.70;;
22525;SDS011;11429;50.842;4.386;2023-04-25T00:54:00;21.52;;;5.45;;
22525;SDS011;11429;50.842;4.386;2023-04-25T00:56:26;18.77;;;4.82;;
22525;SDS011;11429;50.842;4.386;2023-04-25T00:58:53;19.02;;;4.90;;
22525;SDS011;11429;50.842;4.386;2023-04-25T01:01:22;25.52;;;5.30;;
22525;SDS011;11429;50.842;4.386;2023-04-25T01:03:48;17.00;;;5.00;;
22525;SDS011;11429;50.842;4.386;2023-04-25T01:06:15;19.42;;;4.72;;
22525;SDS011;11429;50.842;4.386;2023-04-25T01:08:41;19.45;;;5.53;;
22525;SDS011;11429;50.842;4.386;2023-04-25T01:11:07;14.90;;;5.18;;
22525;SDS011;11429;50.842;4.386;2023-04-25T01:13:32;21.88;;;5.05;;
22525;SDS011;11429;50.842;4.386;2023-04-25T01:15:59;20.55;;;5.32;;
22525;SDS011;11429;50.842;4.386;2023-04-25T01:18:25;23.10;;;5.65;;
22525;SDS011;11429;50.842;4.386;2023-04-25T01:20:52;19.77;;;5.95;;
22525;SDS011;11429;50.842;4.386;2023-04-25T01:23:19;17.85;;;5.38;;
22525;SDS011;11429;50.842;4.386;2023-04-25T01:25:45;17.52;;;5.10;;
22525;SDS011;11429;50.842;4.386;2023-04-25T01:28:12;20.60;;;6.53;;
22525;SDS011;11429;50.842;4.386;2023-04-25T01:30:38;28.52;;;5.93;;
22525;SDS011;11429;50.842;4.386;2023-04-25T01:33:05;22.15;;;5.68;;
22525;SDS011;11429;50.842;4.386;2023-04-25T01:35:33;14.88;;;5.70;;
22525;SDS011;11429;50.842;4.386;2023-04-25T01:37:59;24.30;;;6.32;;
22525;SDS011;11429;50.842;4.386;2023-04-25T01:40:24;22.75;;;6.05;;
22525;SDS011;11429;50.842;4.386;2023-04-25T01:42:51;18.02;;;5.30;;
22525;SDS011;11429;50.842;4.386;2023-04-25T01:45:17;22.88;;;5.80;;
22525;SDS011;11429;50.842;4.386;2023-04-25T01:47:43;17.35;;;5.47;;
22525;SDS011;11429;50.842;4.386;2023-04-25T01:50:13;23.33;;;5.40;;
22525;SDS011;11429;50.842;4.386;2023-04-25T01:52:40;15.27;;;4.60;;
22525;SDS011;11429;50.842;4.386;2023-04-25T01:55:06;23.88;;;5.45;;
22525;SDS011;11429;50.842;4.386;2023-04-25T01:57:32;17.88;;;5.35;;
22525;SDS011;11429;50.842;4.386;2023-04-25T01:59:58;18.55;;;4.82;;
22525;SDS011;11429;50.842;4.386;2023-04-25T02:02:26;21.13;;;5.43;;
22525;SDS011;11429;50.842;4.386;2023-04-25T02:04:52;21.45;;;5.57;;
22525;SDS011;11429;50.842;4.386;2023-04-25T02:07:19;18.08;;;4.60;;
22525;SDS011;11429;50.842;4.386;2023-04-25T02:09:45;17.42;;;4.97;;
22525;SDS011;11429;50.842;4.386;2023-04-25T02:12:11;12.27;;;4.78;;
22525;SDS011;11429;50.842;4.386;2023-04-25T02:14:36;19.80;;;4.80;;
22525;SDS011;11429;50.842;4.386;2023-04-25T02:17:02;22.48;;;5.07;;
22525;SDS011;11429;50.842;4.386;2023-04-25T02:19:28;21.15;;;5.40;;
22525;SDS011;11429;50.842;4.386;2023-04-25T02:21:53;16.80;;;4.95;;
22525;SDS011;11429;50.842;4.386;2023-04-25T02:24:20;20.70;;;5.72;;
22525;SDS011;11429;50.842;4.386;2023-04-25T02:26:45;20.38;;;5.53;;
22525;SDS011;11429;50.842;4.386;2023-04-25T02:29:11;20.75;;;5.63;;
22525;SDS011;11429;50.842;4.386;2023-04-25T02:31:37;23.33;;;5.70;;
22525;SDS011;11429;50.842;4.386;2023-04-25T02:34:03;20.65;;;5.28;;
22525;SDS011;11429;50.842;4.386;2023-04-25T02:36:29;18.80;;;5.68;;
22525;SDS011;11429;50.842;4.386;2023-04-25T02:38:59;16.25;;;5.18;;
22525;SDS011;11429;50.842;4.386;2023-04-25T02:41:25;17.42;;;4.70;;
22525;SDS011;11429;50.842;4.386;2023-04-25T02:43:51;24.42;;;5.88;;
22525;SDS011;11429;50.842;4.386;2023-04-25T02:46:17;16.10;;;4.85;;
22525;SDS011;11429;50.842;4.386;2023-04-25T02:48:43;20.48;;;5.22;;
22525;SDS011;11429;50.842;4.386;2023-04-25T02:51:08;17.33;;;5.90;;
22525;SDS011;11429;50.842;4.386;2023-04-25T02:53:34;19.23;;;5.18;;
22525;SDS011;11429;50.842;4.386;2023-04-25T02:56:00;20.45;;;5.55;;
22525;SDS011;11429;50.842;4.386;2023-04-25T02:58:26;22.10;;;5.60;;
22525;SDS011;11429;50.842;4.386;2023-04-25T03:00:52;20.10;;;5.03;;
22525;SDS011;11429;50.842;4.386;2023-04-25T03:03:19;21.35;;;5.38;;
22525;SDS011;11429;50.842;4.386;2023-04-25T03:05:48;18.80;;;5.70;;
22525;SDS011;11429;50.842;4.386;2023-04-25T03:08:14;20.00;;;5.78;;
22525;SDS011;11429;50.842;4.386;2023-04-25T03:10:39;19.65;;;5.93;;
22525;SDS011;11429;50.842;4.386;2023-04-25T03:13:05;18.88;;;6.03;;
22525;SDS011;11429;50.842;4.386;2023-04-25T03:15:31;17.95;;;5.20;;
22525;SDS011;11429;50.842;4.386;2023-04-25T03:17:56;16.95;;;5.15;;
22525;SDS011;11429;50.842;4.386;2023-04-25T03:20:22;16.23;;;5.63;;
22525;SDS011;11429;50.842;4.386;2023-04-25T03:22:48;21.10;;;5.38;;
22525;SDS011;11429;50.842;4.386;2023-04-25T03:25:14;18.27;;;5.65;;
22525;SDS011;11429;50.842;4.386;2023-04-25T03:27:39;23.52;;;5.43;;
22525;SDS011;11429;50.842;4.386;2023-04-25T03:30:05;17.20;;;5.72;;
22525;SDS011;11429;50.842;4.386;2023-04-25T03:32:32;21.08;;;5.20;;
22525;SDS011;11429;50.842;4.386;2023-04-25T03:35:00;28.85;;;5.70;;
22525;SDS011;11429;50.842;4.386;2023-04-25T03:37:25;18.77;;;5.78;;
22525;SDS011;11429;50.842;4.386;2023-04-25T03:39:51;19.25;;;5.15;;
22525;SDS011;11429;50.842;4.386;2023-04-25T03:42:17;21.65;;;5.97;;
22525;SDS011;11429;50.842;4.386;2023-04-25T03:44:42;16.88;;;4.45;;
22525;SDS011;11429;50.842;4.386;2023-04-25T03:47:08;20.10;;;5.53;;
22525;SDS011;11429;50.842;4.386;2023-04-25T03:49:34;23.13;;;5.43;;
22525;SDS011;11429;50.842;4.386;2023-04-25T03:52:01;16.83;;;5.05;;
22525;SDS011;11429;50.842;4.386;2023-04-25T03:54:27;22.15;;;4.65;;
22525;SDS011;11429;50.842;4.386;2023-04-25T03:56:52;20.73;;;4.90;;
22525;SDS011;11429;50.842;4.386;2023-04-25T03:59:18;18.83;;;5.20;;
22525;SDS011;11429;50.842;4.386;2023-04-25T04:01:44;18.98;;;5.00;;
22525;SDS011;11429;50.842;4.386;2023-04-25T04:04:09;15.25;;;4.85;;
22525;SDS011;11429;50.842;4.386;2023-04-25T04:06:35;18.77;;;4.70;;
22525;SDS011;11429;50.842;4.386;2023-04-25T04:09:01;18.15;;;5.15;;
22525;SDS011;11429;50.842;4.386;2023-04-25T04:11:28;18.38;;;5.38;;
22525;SDS011;11429;50.842;4.386;2023-04-25T04:13:54;18.13;;;5.20;;
22525;SDS011;11429;50.842;4.386;2023-04-25T04:16:20;20.75;;;4.88;;
22525;SDS011;11429;50.842;4.386;2023-04-25T04:18:45;16.90;;;5.13;;
22525;SDS011;11429;50.842;4.386;2023-04-25T04:21:11;18.77;;;4.82;;
22525;SDS011;11429;50.842;4.386;2023-04-25T04:23:37;19.08;;;5.10;;
22525;SDS011;11429;50.842;4.386;2023-04-25T04:26:02;19.00;;;5.43;;
22525;SDS011;11429;50.842;4.386;2023-04-25T04:28:28;18.77;;;5.35;;
22525;SDS011;11429;50.842;4.386;2023-04-25T04:30:54;15.05;;;5.10;;
22525;SDS011;11429;50.842;4.386;2023-04-25T04:33:20;19.55;;;5.22;;
22525;SDS011;11429;50.842;4.386;2023-04-25T04:35:48;20.70;;;5.32;;
22525;SDS011;11429;50.842;4.386;2023-04-25T04:38:17;15.88;;;4.68;;
22525;SDS011;11429;50.842;4.386;2023-04-25T04:40:43;18.77;;;5.60;;
22525;SDS011;11429;50.842;4.386;2023-04-25T04:43:09;24.05;;;6.85;;
22525;SDS011;11429;50.842;4.386;2023-04-25T04:45:35;15.27;;;5.32;;
22525;SDS011;11429;50.842;4.386;2023-04-25T04:48:03;17.38;;;5.90;;
22525;SDS011;11429;50.842;4.386;2023-04-25T04:50:33;18.55;;;6.13;;
22525;SDS011;11429;50.842;4.386;2023-04-25T04:53:00;17.23;;;5.13;;
22525;SDS011;11429;50.842;4.386;2023-04-25T04:55:27;20.20;;;6.25;;
22525;SDS011;11429;50.842;4.386;2023-04-25T04:57:52;17.25;;;5.13;;
22525;SDS011;11429;50.842;4.386;2023-04-25T05:00:18;17.25;;;5.60;;
22525;SDS011;11429;50.842;4.386;2023-04-25T05:02:45;17.17;;;5.55;;
22525;SDS011;11429;50.842;4.386;2023-04-25T05:05:11;19.55;;;5.28;;
22525;SDS011;11429;50.842;4.386;2023-04-25T05:07:37;20.65;;;5.82;;
22525;SDS011;11429;50.842;4.386;2023-04-25T05:10:02;14.43;;;5.13;;
22525;SDS011;11429;50.842;4.386;2023-04-25T05:12:29;15.13;;;5.03;;
22525;SDS011;11429;50.842;4.386;2023-04-25T05:14:55;14.27;;;5.05;;
22525;SDS011;11429;50.842;4.386;2023-04-25T05:17:21;14.05;;;5.13;;
22525;SDS011;11429;50.842;4.386;2023-04-25T05:19:46;14.05;;;5.65;;
22525;SDS011;11429;50.842;4.386;2023-04-25T05:22:12;14.38;;;4.28;;
22525;SDS011;11429;50.842;4.386;2023-04-25T05:24:38;22.35;;;6.45;;
22525;SDS011;11429;50.842;4.386;2023-04-25T05:27:04;20.45;;;5.70;;
22525;SDS011;11429;50.842;4.386;2023-04-25T05:29:30;18.05;;;5.63;;
22525;SDS011;11429;50.842;4.386;2023-04-25T05:31:56;14.52;;;5.47;;
22525;SDS011;11429;50.842;4.386;2023-04-25T05:34:22;16.35;;;5.35;;
22525;SDS011;11429;50.842;4.386;2023-04-25T05:36:47;14.20;;;5.50;;
22525;SDS011;11429;50.842;4.386;2023-04-25T05:39:15;14.32;;;4.25;;
22525;SDS011;11429;50.842;4.386;2023-04-25T05:41:41;10.82;;;4.53;;
22525;SDS011;11429;50.842;4.386;2023-04-25T05:44:07;12.15;;;4.45;;
22525;SDS011;11429;50.842;4.386;2023-04-25T05:46:33;14.00;;;4.03;;
22525;SDS011;11429;50.842;4.386;2023-04-25T05:48:59;17.42;;;4.13;;
22525;SDS011;11429;50.842;4.386;2023-04-25T05:51:24;16.75;;;4.63;;
22525;SDS011;11429;50.842;4.386;2023-04-25T05:53:51;18.40;;;3.90;;
22525;SDS011;11429;50.842;4.386;2023-04-25T05:56:16;14.18;;;4.07;;
22525;SDS011;11429;50.842;4.386;2023-04-25T05:58:42;13.65;;;3.90;;
22525;SDS011;11429;50.842;4.386;2023-04-25T06:01:08;8.93;;;3.67;;
22525;SDS011;11429;50.842;4.386;2023-04-25T06:03:34;11.85;;;4.18;;
22525;SDS011;11429;50.842;4.386;2023-04-25T06:06:00;16.80;;;4.90;;
22525;SDS011;11429;50.842;4.386;2023-04-25T06:08:25;13.52;;;4.72;;
22525;SDS011;11429;50.842;4.386;2023-04-25T06:10:51;18.48;;;5.75;;
22525;SDS011;11429;50.842;4.386;2023-04-25T06:13:17;18.70;;;4.72;;
22525;SDS011;11429;50.842;4.386;2023-04-25T06:15:42;12.95;;;4.65;;
22525;SDS011;11429;50.842;4.386;2023-04-25T06:18:08;14.68;;;4.88;;
22525;SDS011;11429;50.842;4.386;2023-04-25T06:20:34;17.38;;;4.90;;
22525;SDS011;11429;50.842;4.386;2023-04-25T06:23:00;18.35;;;5.63;;
22525;SDS011;11429;50.842;4.386;2023-04-25T06:25:25;15.98;;;5.85;;
22525;SDS011;11429;50.842;4.386;2023-04-25T06:27:51;16.20;;;5.75;;
22525;SDS011;11429;50.842;4.386;2023-04-25T06:30:17;14.95;;;5.78;;
22525;SDS011;11429;50.842;4.386;2023-04-25T06:32:47;15.30;;;6.05;;
22525;SDS011;11429;50.842;4.386;2023-04-25T06:35:13;20.77;;;7.05;;
22525;SDS011;11429;50.842;4.386;2023-04-25T06:37:38;16.27;;;6.05;;
22525;SDS011;11429;50.842;4.386;2023-04-25T06:40:04;17.30;;;6.68;;
22525;SDS011;11429;50.842;4.386;2023-04-25T06:42:33;17.33;;;6.55;;
22525;SDS011;11429;50.842;4.386;2023-04-25T06:44:59;18.27;;;6.38;;
22525;SDS011;11429;50.842;4.386;2023-04-25T06:47:25;15.27;;;5.90;;
22525;SDS011;11429;50.842;4.386;2023-04-25T06:49:51;19.15;;;5.97;;
22525;SDS011;11429;50.842;4.386;2023-04-25T06:52:16;17.02;;;6.25;;
22525;SDS011;11429;50.842;4.386;2023-04-25T06:54:43;15.30;;;4.20;;
22525;SDS011;11429;50.842;4.386;2023-04-25T06:57:09;15.45;;;4.25;;
22525;SDS011;11429;50.842;4.386;2023-04-25T06:59:35;19.25;;;5.82;;
22525;SDS011;11429;50.842;4.386;2023-04-25T07:02:00;15.68;;;4.53;;
22525;SDS011;11429;50.842;4.386;2023-04-25T07:04:26;10.68;;;3.60;;
22525;SDS011;11429;50.842;4.386;2023-04-25T07:06:52;11.63;;;4.10;;
22525;SDS011;11429;50.842;4.386;2023-04-25T07:09:18;18.50;;;5.10;;
22525;SDS011;11429;50.842;4.386;2023-04-25T07:11:44;12.52;;;3.75;;
22525;SDS011;11429;50.842;4.386;2023-04-25T07:14:10;15.40;;;3.75;;
22525;SDS011;11429;50.842;4.386;2023-04-25T07:16:35;11.48;;;3.28;;
22525;SDS011;11429;50.842;4.386;2023-04-25T07:19:01;17.25;;;4.93;;
22525;SDS011;11429;50.842;4.386;2023-04-25T07:21:27;9.48;;;3.55;;
22525;SDS011;11429;50.842;4.386;2023-04-25T07:23:53;16.80;;;3.72;;
22525;SDS011;11429;50.842;4.386;2023-04-25T07:26:18;12.30;;;3.85;;
22525;SDS011;11429;50.842;4.386;2023-04-25T07:28:45;14.90;;;3.70;;
22525;SDS011;11429;50.842;4.386;2023-04-25T07:31:14;10.27;;;2.85;;
22525;SDS011;11429;50.842;4.386;2023-04-25T07:33:42;15.48;;;4.03;;
22525;SDS011;11429;50.842;4.386;2023-04-25T07:36:08;37.15;;;17.17;;
22525;SDS011;11429;50.842;4.386;2023-04-25T07:38:33;12.55;;;3.33;;
22525;SDS011;11429;50.842;4.386;2023-04-25T07:40:59;13.63;;;3.47;;
22525;SDS011;11429;50.842;4.386;2023-04-25T07:43:25;15.95;;;4.13;;
22525;SDS011;11429;50.842;4.386;2023-04-25T07:45:50;13.70;;;3.17;;
22525;SDS011;11429;50.842;4.386;2023-04-25T07:48:17;10.88;;;3.10;;
22525;SDS011;11429;50.842;4.386;2023-04-25T07:50:45;14.05;;;4.50;;
22525;SDS011;11429;50.842;4.386;2023-04-25T07:53:12;15.65;;;4.03;;
22525;SDS011;11429;50.842;4.386;2023-04-25T07:55:38;14.18;;;3.53;;
22525;SDS011;11429;50.842;4.386;2023-04-25T07:58:08;21.13;;;3.40;;
22525;SDS011;11429;50.842;4.386;2023-04-25T08:00:35;14.52;;;3.58;;
22525;SDS011;11429;50.842;4.386;2023-04-25T08:03:01;13.00;;;3.80;;
22525;SDS011;11429;50.842;4.386;2023-04-25T08:05:27;11.77;;;3.10;;
22525;SDS011;11429;50.842;4.386;2023-04-25T08:07:53;12.25;;;3.10;;
22525;SDS011;11429;50.842;4.386;2023-04-25T08:10:19;14.68;;;3.47;;
22525;SDS011;11429;50.842;4.386;2023-04-25T08:12:45;13.93;;;3.50;;
22525;SDS011;11429;50.842;4.386;2023-04-25T08:15:11;12.95;;;3.47;;
22525;SDS011;11429;50.842;4.386;2023-04-25T08:17:38;9.45;;;3.42;;
22525;SDS011;11429;50.842;4.386;2023-04-25T08:20:04;11.55;;;3.10;;
22525;SDS011;11429;50.842;4.386;2023-04-25T08:22:30;10.73;;;3.50;;
22525;SDS011;11429;50.842;4.386;2023-04-25T08:24:56;10.70;;;3.10;;
22525;SDS011;11429;50.842;4.386;2023-04-25T08:27:22;9.80;;;2.80;;
22525;SDS011;11429;50.842;4.386;2023-04-25T08:29:48;11.75;;;2.80;;
22525;SDS011;11429;50.842;4.386;2023-04-25T08:32:15;10.63;;;2.58;;
22525;SDS011;11429;50.842;4.386;2023-04-25T08:34:40;13.40;;;3.03;;
22525;SDS011;11429;50.842;4.386;2023-04-25T08:37:08;8.13;;;2.47;;
22525;SDS011;11429;50.842;4.386;2023-04-25T08:39:35;12.45;;;3.30;;
22525;SDS011;11429;50.842;4.386;2023-04-25T08:42:02;10.00;;;2.70;;
22525;SDS011;11429;50.842;4.386;2023-04-25T08:44:32;11.57;;;3.33;;
22525;SDS011;11429;50.842;4.386;2023-04-25T08:46:59;10.68;;;2.60;;
22525;SDS011;11429;50.842;4.386;2023-04-25T08:49:28;9.88;;;2.75;;
22525;SDS011;11429;50.842;4.386;2023-04-25T08:51:56;11.48;;;2.90;;
22525;SDS011;11429;50.842;4.386;2023-04-25T08:54:25;12.35;;;2.65;;
22525;SDS011;11429;50.842;4.386;2023-04-25T08:56:54;8.20;;;2.20;;
22525;SDS011;11429;50.842;4.386;2023-04-25T08:59:22;13.45;;;2.65;;
22525;SDS011;11429;50.842;4.386;2023-04-25T09:01:51;8.23;;;2.08;;
22525;SDS011;11429;50.842;4.386;2023-04-25T09:04:17;9.93;;;3.28;;
22525;SDS011;11429;50.842;4.386;2023-04-25T09:06:45;11.30;;;2.78;;
22525;SDS011;11429;50.842;4.386;2023-04-25T09:09:11;8.18;;;2.30;;
22525;SDS011;11429;50.842;4.386;2023-04-25T09:11:37;12.35;;;2.20;;
22525;SDS011;11429;50.842;4.386;2023-04-25T09:14:12;8.77;;;2.45;;
22525;SDS011;11429;50.842;4.386;2023-04-25T09:19:21;10.00;;;2.92;;
22525;SDS011;11429;50.842;4.386;2023-04-25T09:21:50;15.35;;;4.45;;
22525;SDS011;11429;50.842;4.386;2023-04-25T09:24:33;9.35;;;2.47;;
22525;SDS011;11429;50.842;4.386;2023-04-25T09:27:07;8.23;;;2.13;;
22525;SDS011;11429;50.842;4.386;2023-04-25T09:29:36;13.80;;;2.92;;
22525;SDS011;11429;50.842;4.386;2023-04-25T09:32:14;13.32;;;3.60;;
22525;SDS011;11429;50.842;4.386;2023-04-25T09:34:41;13.82;;;2.22;;
22525;SDS011;11429;50.842;4.386;2023-04-25T09:37:09;11.75;;;2.83;;
22525;SDS011;11429;50.842;4.386;2023-04-25T09:39:36;7.53;;;2.20;;
22525;SDS011;11429;50.842;4.386;2023-04-25T09:42:03;9.63;;;3.28;;
22525;SDS011;11429;50.842;4.386;2023-04-25T09:44:30;13.00;;;2.55;;
22525;SDS011;11429;50.842;4.386;2023-04-25T09:46:56;11.75;;;2.70;;
22525;SDS011;11429;50.842;4.386;2023-04-25T09:49:22;10.10;;;2.50;;
22525;SDS011;11429;50.842;4.386;2023-04-25T09:51:54;8.60;;;2.45;;
22525;SDS011;11429;50.842;4.386;2023-04-25T09:54:22;10.27;;;2.17;;
22525;SDS011;11429;50.842;4.386;2023-04-25T09:56:49;6.43;;;1.98;;
22525;SDS011;11429;50.842;4.386;2023-04-25T09:59:19;8.30;;;2.45;;
22525;SDS011;11429;50.842;4.386;2023-04-25T10:01:46;7.78;;;2.25;;
22525;SDS011;11429;50.842;4.386;2023-04-25T10:04:16;7.55;;;2.05;;
22525;SDS011;11429;50.842;4.386;2023-04-25T10:06:48;7.47;;;2.00;;
22525;SDS011;11429;50.842;4.386;2023-04-25T10:09:18;6.18;;;1.98;;
22525;SDS011;11429;50.842;4.386;2023-04-25T10:11:46;8.25;;;3.20;;
22525;SDS011;11429;50.842;4.386;2023-04-25T10:14:15;8.50;;;2.33;;
22525;SDS011;11429;50.842;4.386;2023-04-25T10:16:42;9.45;;;2.38;;
22525;SDS011;11429;50.842;4.386;2023-04-25T10:19:09;8.23;;;3.03;;
22525;SDS011;11429;50.842;4.386;2023-04-25T10:21:36;6.97;;;1.98;;
22525;SDS011;11429;50.842;4.386;2023-04-25T10:24:09;14.27;;;1.92;;
22525;SDS011;11429;50.842;4.386;2023-04-25T10:26:35;7.25;;;1.88;;
22525;SDS011;11429;50.842;4.386;2023-04-25T10:29:02;6.65;;;1.60;;
22525;SDS011;11429;50.842;4.386;2023-04-25T10:31:31;6.85;;;2.00;;
22525;SDS011;11429;50.842;4.386;2023-04-25T10:33:59;6.10;;;1.85;;
22525;SDS011;11429;50.842;4.386;2023-04-25T10:36:25;6.03;;;1.75;;
22525;SDS011;11429;50.842;4.386;2023-04-25T10:38:56;5.03;;;1.90;;
22525;SDS011;11429;50.842;4.386;2023-04-25T10:41:31;8.75;;;1.65;;
22525;SDS011;11429;50.842;4.386;2023-04-25T10:44:10;8.35;;;1.50;;
22525;SDS011;11429;50.842;4.386;2023-04-25T10:46:35;4.50;;;1.52;;
22525;SDS011;11429;50.842;4.386;2023-04-25T10:49:02;8.00;;;1.83;;
22525;SDS011;11429;50.842;4.386;2023-04-25T10:51:29;7.13;;;2.03;;
22525;SDS011;11429;50.842;4.386;2023-04-25T10:54:03;11.32;;;3.13;;
22525;SDS011;11429;50.842;4.386;2023-04-25T10:56:35;11.45;;;2.20;;
22525;SDS011;11429;50.842;4.386;2023-04-25T10:59:17;7.18;;;1.85;;
22525;SDS011;11429;50.842;4.386;2023-04-25T11:01:44;6.50;;;1.50;;
22525;SDS011;11429;50.842;4.386;2023-04-25T11:04:24;7.72;;;1.90;;
22525;SDS011;11429;50.842;4.386;2023-04-25T11:09:47;6.95;;;2.10;;
22525;SDS011;11429;50.842;4.386;2023-04-25T11:12:14;7.60;;;2.33;;
22525;SDS011;11429;50.842;4.386;2023-04-25T11:14:41;7.10;;;2.55;;
22525;SDS011;11429;50.842;4.386;2023-04-25T11:17:07;9.32;;;2.10;;
22525;SDS011;11429;50.842;4.386;2023-04-25T11:19:33;6.20;;;2.25;;
22525;SDS011;11429;50.842;4.386;2023-04-25T11:22:03;11.63;;;2.45;;
22525;SDS011;11429;50.842;4.386;2023-04-25T11:24:29;9.25;;;1.88;;
22525;SDS011;11429;50.842;4.386;2023-04-25T11:26:58;11.18;;;1.92;;
22525;SDS011;11429;50.842;4.386;2023-04-25T11:29:27;8.70;;;2.22;;
22525;SDS011;11429;50.842;4.386;2023-04-25T11:31:54;6.05;;;1.55;;
22525;SDS011;11429;50.842;4.386;2023-04-25T11:34:25;7.68;;;2.58;;
22525;SDS011;11429;50.842;4.386;2023-04-25T11:36:51;9.25;;;2.03;;
22525;SDS011;11429;50.842;4.386;2023-04-25T11:39:21;7.97;;;2.40;;
22525;SDS011;11429;50.842;4.386;2023-04-25T11:41:47;7.05;;;2.50;;
22525;SDS011;11429;50.842;4.386;2023-04-25T11:44:15;8.60;;;2.25;;
22525;SDS011;11429;50.842;4.386;2023-04-25T11:46:42;8.70;;;2.72;;
22525;SDS011;11429;50.842;4.386;2023-04-25T11:49:08;7.97;;;1.85;;
22525;SDS011;11429;50.842;4.386;2023-04-25T11:54:06;5.95;;;1.10;;
22525;SDS011;11429;50.842;4.386;2023-04-25T11:56:32;11.90;;;1.63;;
22525;SDS011;11429;50.842;4.386;2023-04-25T11:58:59;9.35;;;1.63;;
22525;SDS011;11429;50.842;4.386;2023-04-25T12:01:30;6.82;;;1.50;;
22525;SDS011;11429;50.842;4.386;2023-04-25T12:03:57;5.70;;;1.83;;
22525;SDS011;11429;50.842;4.386;2023-04-25T12:06:27;10.65;;;4.20;;
22525;SDS011;11429;50.842;4.386;2023-04-25T12:09:03;5.72;;;1.42;;
22525;SDS011;11429;50.842;4.386;2023-04-25T12:11:33;7.07;;;1.63;;
22525;SDS011;11429;50.842;4.386;2023-04-25T12:14:09;5.97;;;1.45;;
22525;SDS011;11429;50.842;4.386;2023-04-25T12:19:14;6.45;;;1.73;;
22525;SDS011;11429;50.842;4.386;2023-04-25T12:21:40;3.42;;;1.30;;
22525;SDS011;11429;50.842;4.386;2023-04-25T12:24:14;5.18;;;1.30;;
22525;SDS011;11429;50.842;4.386;2023-04-25T12:26:48;4.35;;;1.15;;
22525;SDS011;11429;50.842;4.386;2023-04-25T12:29:24;3.22;;;1.02;;
22525;SDS011;11429;50.842;4.386;2023-04-25T12:31:51;3.90;;;1.15;;
22525;SDS011;11429;50.842;4.386;2023-04-25T12:34:18;4.22;;;1.40;;
22525;SDS011;11429;50.842;4.386;2023-04-25T12:36:44;5.45;;;1.13;;
22525;SDS011;11429;50.842;4.386;2023-04-25T12:39:14;4.60;;;1.42;;
22525;SDS011;11429;50.842;4.386;2023-04-25T12:41:41;5.45;;;1.20;;
22525;SDS011;11429;50.842;4.386;2023-04-25T12:44:07;6.57;;;1.33;;
22525;SDS011;11429;50.842;4.386;2023-04-25T12:46:32;2.47;;;0.80;;
22525;SDS011;11429;50.842;4.386;2023-04-25T12:48:58;3.15;;;1.10;;
22525;SDS011;11429;50.842;4.386;2023-04-25T12:51:25;4.85;;;1.40;;
22525;SDS011;11429;50.842;4.386;2023-04-25T12:53:52;3.30;;;1.00;;
22525;SDS011;11429;50.842;4.386;2023-04-25T12:56:18;5.80;;;1.15;;
22525;SDS011;11429;50.842;4.386;2023-04-25T12:58:44;6.32;;;1.13;;
22525;SDS011;11429;50.842;4.386;2023-04-25T13:01:11;4.38;;;1.73;;
22525;SDS011;11429;50.842;4.386;2023-04-25T13:03:38;5.85;;;2.38;;
22525;SDS011;11429;50.842;4.386;2023-04-25T13:06:05;7.85;;;3.13;;
22525;SDS011;11429;50.842;4.386;2023-04-25T13:08:31;6.03;;;1.30;;
22525;SDS011;11429;50.842;4.386;2023-04-25T13:10:57;5.13;;;1.33;;
22525;SDS011;11429;50.842;4.386;2023-04-25T13:13:23;6.22;;;1.50;;
22525;SDS011;11429;50.842;4.386;2023-04-25T13:15:49;4.63;;;1.20;;
22525;SDS011;11429;50.842;4.386;2023-04-25T13:18:15;3.58;;;1.15;;
22525;SDS011;11429;50.842;4.386;2023-04-25T13:20:40;5.60;;;1.10;;
22525;SDS011;11429;50.842;4.386;2023-04-25T13:23:06;5.45;;;1.30;;
22525;SDS011;11429;50.842;4.386;2023-04-25T13:25:32;7.15;;;1.55;;
22525;SDS011;11429;50.842;4.386;2023-04-25T13:27:58;7.82;;;2.00;;
22525;SDS011;11429;50.842;4.386;2023-04-25T13:30:23;4.70;;;1.48;;
22525;SDS011;11429;50.842;4.386;2023-04-25T13:32:49;4.85;;;1.45;;
22525;SDS011;11429;50.842;4.386;2023-04-25T13:35:16;7.00;;;2.67;;
22525;SDS011;11429;50.842;4.386;2023-04-25T13:37:42;4.30;;;1.20;;
22525;SDS011;11429;50.842;4.386;2023-04-25T13:40:08;5.05;;;1.20;;
22525;SDS011;11429;50.842;4.386;2023-04-25T13:42:36;5.07;;;1.33;;
22525;SDS011;11429;50.842;4.386;2023-04-25T13:45:03;3.83;;;1.05;;
22525;SDS011;11429;50.842;4.386;2023-04-25T13:47:29;4.82;;;1.00;;
22525;SDS011;11429;50.842;4.386;2023-04-25T13:49:55;3.33;;;1.27;;
22525;SDS011;11429;50.842;4.386;2023-04-25T13:52:21;5.32;;;1.10;;
22525;SDS011;11429;50.842;4.386;2023-04-25T13:54:49;4.28;;;0.90;;
22525;SDS011;11429;50.842;4.386;2023-04-25T13:57:15;7.10;;;1.52;;
22525;SDS011;11429;50.842;4.386;2023-04-25T13:59:41;5.68;;;1.40;;
22525;SDS011;11429;50.842;4.386;2023-04-25T14:02:07;7.78;;;1.38;;
22525;SDS011;11429;50.842;4.386;2023-04-25T14:04:33;7.20;;;1.75;;
22525;SDS011;11429;50.842;4.386;2023-04-25T14:06:59;4.50;;;1.38;;
22525;SDS011;11429;50.842;4.386;2023-04-25T14:09:24;3.53;;;1.10;;
22525;SDS011;11429;50.842;4.386;2023-04-25T14:11:52;7.43;;;1.40;;
22525;SDS011;11429;50.842;4.386;2023-04-25T14:14:18;8.20;;;1.67;;
22525;SDS011;11429;50.842;4.386;2023-04-25T14:16:44;6.47;;;1.52;;
22525;SDS011;11429;50.842;4.386;2023-04-25T14:19:10;6.22;;;1.10;;
22525;SDS011;11429;50.842;4.386;2023-04-25T14:21:36;8.63;;;1.58;;
22525;SDS011;11429;50.842;4.386;2023-04-25T14:24:02;4.72;;;1.48;;
22525;SDS011;11429;50.842;4.386;2023-04-25T14:26:28;5.35;;;1.60;;
22525;SDS011;11429;50.842;4.386;2023-04-25T14:28:53;4.13;;;1.45;;
22525;SDS011;11429;50.842;4.386;2023-04-25T14:31:19;2.63;;;1.40;;
22525;SDS011;11429;50.842;4.386;2023-04-25T14:33:45;6.43;;;1.52;;
22525;SDS011;11429;50.842;4.386;2023-04-25T14:36:11;3.45;;;1.23;;
22525;SDS011;11429;50.842;4.386;2023-04-25T14:38:37;5.70;;;1.20;;
22525;SDS011;11429;50.842;4.386;2023-04-25T14:41:03;2.05;;;0.90;;
22525;SDS011;11429;50.842;4.386;2023-04-25T14:43:29;6.00;;;1.52;;
22525;SDS011;11429;50.842;4.386;2023-04-25T14:45:54;3.95;;;1.10;;